Time;durP1;ratioP1;P1;durP2;ratioP2;P2;SDS_P1;SDS_P2;PMS_P1;PMS_P2;Temp;Humidity;BMP_temperature;BMP_pressure;BME280_temperature;BME280_humidity;BME280_pressure;Samples;Min_cycle;Max_cycle;Signal;HPM_P1;HPM_P2
2023/10/04 00:00:59;;;;;;;21.48;3.45;;;11.70;85.10;;;;;;4999065;28;20050;-65
2023/10/04 00:03:29;;;;;;;18.92;3.38;;;11.70;85.20;;;;;;5005951;28;20515;-65
2023/10/04 00:05:55;;;;;;;16.50;3.30;;;11.70;85.20;;;;;;4995728;28;20038;-65
2023/10/04 00:08:23;;;;;;;15.68;3.20;;;11.60;85.20;;;;;;5000835;28;20056;-65
2023/10/04 00:10:49;;;;;;;15.00;2.95;;;11.60;85.00;;;;;;4998463;28;20042;-65
2023/10/04 00:13:15;;;;;;;17.88;3.20;;;11.50;85.00;;;;;;5007320;28;20509;-65
2023/10/04 00:15:41;;;;;;;17.35;3.40;;;11.50;84.90;;;;;;4998498;28;20050;-65
2023/10/04 00:18:07;;;;;;;19.67;3.42;;;11.50;84.80;;;;;;5005260;28;20120;-65
2023/10/04 00:20:33;;;;;;;17.83;3.25;;;11.60;84.80;;;;;;5014516;28;20053;-65
2023/10/04 00:23:04;;;;;;;13.75;3.55;;;11.60;84.70;;;;;;5006353;28;20119;-64
2023/10/04 00:25:31;;;;;;;14.63;2.78;;;11.60;84.50;;;;;;4997247;28;20050;-65
2023/10/04 00:27:56;;;;;;;23.95;3.85;;;11.60;84.50;;;;;;5006773;28;20056;-62
2023/10/04 00:30:27;;;;;;;15.82;3.63;;;11.60;84.60;;;;;;5001249;28;20476;-64
2023/10/04 00:32:54;;;;;;;24.35;3.47;;;11.60;84.60;;;;;;5007997;28;20042;-65
2023/10/04 00:35:21;;;;;;;20.73;3.88;;;11.50;84.80;;;;;;5003161;28;20046;-65
2023/10/04 00:37:56;;;;;;;18.00;3.50;;;11.50;84.90;;;;;;5010531;28;20116;-65
2023/10/04 00:40:33;;;;;;;21.90;4.10;;;11.50;84.90;;;;;;5010472;28;20124;-65
2023/10/04 00:43:01;;;;;;;19.30;3.30;;;11.50;84.90;;;;;;4998893;28;20050;-65
2023/10/04 00:45:28;;;;;;;21.60;3.65;;;11.50;84.80;;;;;;5009136;28;20054;-65
2023/10/04 00:47:58;;;;;;;18.50;3.78;;;11.50;84.90;;;;;;5010953;28;20074;-65
2023/10/04 00:50:31;;;;;;;18.08;3.30;;;11.50;84.70;;;;;;5013240;28;20057;-65
2023/10/04 00:53:36;;;;;;;26.45;3.67;;;11.50;84.70;;;;;;5029134;28;20081;-64
2023/10/04 00:56:02;;;;;;;21.63;3.55;;;11.50;84.50;;;;;;4958334;28;20054;-65
2023/10/04 00:58:28;;;;;;;19.23;3.53;;;11.50;84.50;;;;;;4968019;28;20047;-63
2023/10/04 01:00:54;;;;;;;17.80;3.58;;;11.50;84.50;;;;;;4987826;28;20060;-64
2023/10/04 01:03:20;;;;;;;20.80;3.78;;;11.50;84.50;;;;;;5009539;28;20087;-65
2023/10/04 01:05:51;;;;;;;20.70;3.90;;;11.50;84.60;;;;;;5009134;28;20050;-65
2023/10/04 01:08:22;;;;;;;15.27;3.57;;;11.50;84.50;;;;;;5009667;28;20575;-65
2023/10/04 01:10:50;;;;;;;24.52;4.05;;;11.50;84.60;;;;;;5010200;28;20351;-65
2023/10/04 01:13:20;;;;;;;25.20;4.25;;;11.50;84.70;;;;;;5009303;28;20053;-65
2023/10/04 01:15:49;;;;;;;17.67;3.93;;;11.40;84.80;;;;;;5010320;28;20476;-65
2023/10/04 01:18:16;;;;;;;24.38;3.80;;;11.40;84.80;;;;;;5012393;28;20049;-65
2023/10/04 01:20:42;;;;;;;19.08;4.15;;;11.30;84.80;;;;;;5016150;28;20516;-65
2023/10/04 01:23:12;;;;;;;20.88;4.00;;;11.20;84.80;;;;;;5027574;28;20044;-65
2023/10/04 01:25:42;;;;;;;23.30;4.38;;;11.20;84.90;;;;;;5009673;28;20052;-65
2023/10/04 01:28:12;;;;;;;18.40;3.78;;;11.10;84.90;;;;;;5005708;28;20081;-65
2023/10/04 01:30:43;;;;;;;21.87;4.10;;;11.10;85.00;;;;;;5002565;28;20121;-65
2023/10/04 01:33:12;;;;;;;16.80;3.95;;;11.10;85.00;;;;;;5008112;28;20038;-65
2023/10/04 01:35:38;;;;;;;17.17;3.65;;;11.00;85.10;;;;;;5004681;28;20457;-65
2023/10/04 01:38:07;;;;;;;26.85;3.75;;;11.10;85.10;;;;;;5009254;28;20041;-65
2023/10/04 01:40:35;;;;;;;16.05;3.58;;;11.00;85.20;;;;;;5020166;28;20124;-65
2023/10/04 01:43:10;;;;;;;15.65;3.70;;;11.00;85.20;;;;;;5009268;28;20187;-65
2023/10/04 01:45:36;;;;;;;26.50;4.40;;;11.00;85.30;;;;;;5008402;28;20050;-66
2023/10/04 01:48:05;;;;;;;17.20;3.70;;;11.00;85.30;;;;;;5009786;28;20058;-65
2023/10/04 01:50:30;;;;;;;19.73;3.70;;;11.00;85.30;;;;;;5023876;28;20049;-65
2023/10/04 01:52:56;;;;;;;17.23;3.92;;;10.90;85.40;;;;;;5009247;28;20386;-64
2023/10/04 01:55:22;;;;;;;21.15;3.60;;;10.90;85.50;;;;;;5014176;28;20045;-65
2023/10/04 01:57:48;;;;;;;22.00;4.38;;;10.90;85.40;;;;;;5022472;28;20408;-65
2023/10/04 02:00:18;;;;;;;15.18;3.47;;;10.90;85.60;;;;;;5027334;28;20412;-65
2023/10/04 02:02:45;;;;;;;18.60;3.97;;;10.90;85.60;;;;;;5029079;28;20512;-65
2023/10/04 02:05:14;;;;;;;22.10;3.65;;;10.90;85.60;;;;;;5027918;28;20080;-65
2023/10/04 02:07:40;;;;;;;18.08;3.45;;;10.90;85.70;;;;;;5029297;28;20056;-65
2023/10/04 02:10:09;;;;;;;22.00;4.28;;;10.90;85.70;;;;;;5012876;28;20081;-65
2023/10/04 02:12:35;;;;;;;15.63;3.45;;;10.90;85.60;;;;;;5008575;28;20061;-65
2023/10/04 02:15:01;;;;;;;21.45;3.85;;;11.00;85.60;;;;;;5016746;28;20054;-65
2023/10/04 02:17:27;;;;;;;24.23;4.07;;;11.00;85.70;;;;;;5020070;28;20048;-63
2023/10/04 02:19:53;;;;;;;20.52;4.15;;;11.00;85.60;;;;;;5022632;28;20046;-65
2023/10/04 02:22:19;;;;;;;21.58;4.25;;;11.10;85.50;;;;;;5009544;28;20056;-65
2023/10/04 02:24:45;;;;;;;22.20;4.25;;;11.10;85.50;;;;;;5009100;28;20046;-66
2023/10/04 02:27:11;;;;;;;21.27;3.97;;;11.10;85.50;;;;;;5006403;28;20054;-66
2023/10/04 02:29:43;;;;;;;21.92;4.47;;;11.10;85.50;;;;;;5012015;28;20497;-65
2023/10/04 02:32:09;;;;;;;24.15;4.40;;;11.10;85.40;;;;;;5028880;28;20104;-65
2023/10/04 02:34:38;;;;;;;17.33;4.43;;;11.10;85.40;;;;;;5010460;28;20425;-65
2023/10/04 02:37:07;;;;;;;18.10;4.07;;;11.10;85.40;;;;;;5008984;28;20038;-66
2023/10/04 02:39:39;;;;;;;16.15;3.88;;;11.10;85.40;;;;;;5015424;28;20053;-65
2023/10/04 02:42:09;;;;;;;21.58;4.22;;;11.20;85.40;;;;;;5013263;28;20052;-67
2023/10/04 02:44:39;;;;;;;24.67;3.88;;;11.20;85.30;;;;;;5012632;28;20128;-65
2023/10/04 02:47:08;;;;;;;20.63;4.00;;;11.20;85.20;;;;;;5010633;28;20049;-65
2023/10/04 02:49:38;;;;;;;20.58;3.45;;;11.30;85.20;;;;;;5010303;28;20161;-65
2023/10/04 02:52:08;;;;;;;24.27;4.00;;;11.30;85.20;;;;;;5029634;28;20403;-65
2023/10/04 02:54:36;;;;;;;13.25;3.58;;;11.30;85.20;;;;;;5020553;28;20053;-66
2023/10/04 02:57:07;;;;;;;18.73;3.42;;;11.40;85.20;;;;;;5030402;28;20053;-65
2023/10/04 02:59:33;;;;;;;20.30;3.83;;;11.40;85.30;;;;;;5032163;28;20116;-66
2023/10/04 03:02:00;;;;;;;17.48;4.00;;;11.40;85.40;;;;;;5013857;28;20061;-63
2023/10/04 03:04:26;;;;;;;24.50;4.10;;;11.40;85.30;;;;;;5011592;28;20108;-64
2023/10/04 03:06:52;;;;;;;24.45;4.53;;;11.40;85.30;;;;;;5012259;28;20393;-66
2023/10/04 03:09:18;;;;;;;17.75;4.30;;;11.40;85.20;;;;;;5012349;28;20057;-64
2023/10/04 03:11:44;;;;;;;20.25;4.40;;;11.40;85.30;;;;;;5012161;28;20054;-65
2023/10/04 03:14:12;;;;;;;19.15;3.67;;;11.40;85.20;;;;;;5012397;28;20049;-66
2023/10/04 03:16:42;;;;;;;14.48;3.80;;;11.40;85.20;;;;;;5015105;28;20080;-66
2023/10/04 03:19:10;;;;;;;16.50;3.42;;;11.40;85.20;;;;;;5031525;28;20061;-65
2023/10/04 03:21:39;;;;;;;16.45;4.13;;;11.40;85.20;;;;;;5015441;28;20061;-66
2023/10/04 03:24:10;;;;;;;17.92;3.92;;;11.40;85.20;;;;;;5031944;28;20473;-66
2023/10/04 03:26:37;;;;;;;16.25;4.13;;;11.40;85.20;;;;;;5030905;28;20049;-65
2023/10/04 03:29:04;;;;;;;18.65;4.00;;;11.40;85.20;;;;;;5012787;28;20058;-63
2023/10/04 03:31:30;;;;;;;19.52;3.88;;;11.40;85.10;;;;;;5011115;28;20046;-66
2023/10/04 03:33:56;;;;;;;16.65;3.47;;;11.40;85.10;;;;;;5012381;28;20050;-65
2023/10/04 03:36:21;;;;;;;13.73;3.38;;;11.40;85.00;;;;;;5031631;28;20041;-65
2023/10/04 03:38:49;;;;;;;12.48;3.53;;;11.40;85.00;;;;;;5029756;28;20060;-66
2023/10/04 03:41:16;;;;;;;16.52;3.40;;;11.40;84.90;;;;;;5010940;28;20188;-66
2023/10/04 03:43:42;;;;;;;19.90;3.88;;;11.40;84.60;;;;;;5011185;28;20065;-66
2023/10/04 03:46:17;;;;;;;20.05;4.28;;;11.50;84.60;;;;;;5011035;28;20478;-65
2023/10/04 03:48:48;;;;;;;22.45;4.07;;;11.50;84.40;;;;;;5024855;28;20428;-65
2023/10/04 03:51:19;;;;;;;18.05;3.47;;;11.60;84.40;;;;;;5010585;28;20056;-65
2023/10/04 03:53:46;;;;;;;18.05;3.38;;;11.70;84.30;;;;;;5010380;28;20058;-64
2023/10/04 03:56:14;;;;;;;19.85;3.83;;;11.70;84.10;;;;;;5009490;28;21832;-66
2023/10/04 03:58:40;;;;;;;14.60;3.75;;;11.70;84.10;;;;;;5010715;28;20052;-65
2023/10/04 04:01:07;;;;;;;19.95;4.05;;;11.70;84.00;;;;;;5010772;28;20042;-65
2023/10/04 04:03:34;;;;;;;16.27;3.70;;;11.70;84.10;;;;;;5010689;28;20053;-67
2023/10/04 04:06:00;;;;;;;19.95;3.88;;;11.70;84.00;;;;;;5011393;28;20485;-65
2023/10/04 04:08:26;;;;;;;16.35;3.72;;;11.70;83.90;;;;;;5011375;28;20436;-66
2023/10/04 04:10:53;;;;;;;15.07;3.40;;;11.70;83.90;;;;;;5010839;28;20050;-65
2023/10/04 04:13:19;;;;;;;19.73;3.92;;;11.70;84.00;;;;;;5008983;28;20058;-66
2023/10/04 04:15:46;;;;;;;18.35;4.05;;;11.70;84.00;;;;;;5011004;28;20064;-66
2023/10/04 04:18:21;;;;;;;19.55;3.42;;;11.60;84.00;;;;;;5027944;28;20049;-66
2023/10/04 04:20:48;;;;;;;16.20;3.75;;;11.50;84.10;;;;;;5017532;28;20056;-66
2023/10/04 04:23:16;;;;;;;15.20;3.53;;;11.50;84.00;;;;;;5010863;28;20045;-66
2023/10/04 04:25:43;;;;;;;14.20;3.65;;;11.50;84.10;;;;;;5010573;28;20054;-65
2023/10/04 04:28:12;;;;;;;20.20;4.18;;;11.50;84.10;;;;;;5015926;28;20041;-66
2023/10/04 04:30:38;;;;;;;14.25;3.03;;;11.50;84.10;;;;;;5029229;28;20073;-65
2023/10/04 04:33:06;;;;;;;13.93;3.58;;;11.50;84.20;;;;;;4997853;28;20042;-65
2023/10/04 04:38:12;;;;;;;16.45;3.58;;;11.50;84.30;;;;;;5010617;28;20061;-64
2023/10/04 04:40:39;;;;;;;19.20;3.63;;;11.40;84.30;;;;;;5010216;28;20121;-66
2023/10/04 04:45:56;;;;;;;16.20;3.47;;;11.30;84.20;;;;;;5009874;28;20053;-66
2023/10/04 04:48:26;;;;;;;20.15;3.58;;;11.20;84.40;;;;;;5010377;28;20049;-65
2023/10/04 04:50:54;;;;;;;13.73;3.47;;;11.10;84.40;;;;;;5011416;28;20054;-66
2023/10/04 04:53:24;;;;;;;17.52;3.72;;;11.10;84.40;;;;;;5011375;28;20092;-65
2023/10/04 04:55:50;;;;;;;17.80;3.85;;;11.10;84.40;;;;;;5011027;28;20405;-66
2023/10/04 04:58:21;;;;;;;21.35;3.92;;;11.10;84.50;;;;;;5011891;28;20042;-66
2023/10/04 05:00:50;;;;;;;18.13;4.03;;;11.00;84.50;;;;;;5019993;28;20042;-64
2023/10/04 05:03:18;;;;;;;14.65;3.63;;;11.00;84.50;;;;;;5001133;28;20085;-64
2023/10/04 05:05:49;;;;;;;13.90;3.80;;;11.00;84.50;;;;;;4999474;28;20053;-66
2023/10/04 05:08:15;;;;;;;21.40;4.38;;;11.00;84.60;;;;;;5001154;28;20068;-65
2023/10/04 05:10:44;;;;;;;16.50;3.67;;;11.00;84.70;;;;;;5001728;28;20576;-66
2023/10/04 05:13:13;;;;;;;17.83;4.13;;;11.00;84.80;;;;;;5007450;28;20061;-65
2023/10/04 05:15:42;;;;;;;16.88;4.53;;;10.90;84.70;;;;;;5007472;28;20204;-66
2023/10/04 05:18:15;;;;;;;16.48;3.78;;;10.90;84.70;;;;;;5007980;28;20056;-66
2023/10/04 05:20:50;;;;;;;21.08;4.32;;;10.90;84.80;;;;;;5019748;28;20048;-66
2023/10/04 05:23:27;;;;;;;21.20;4.30;;;10.90;84.90;;;;;;5006292;28;20041;-65
2023/10/04 05:25:54;;;;;;;21.20;4.85;;;10.90;85.00;;;;;;5003675;28;20042;-65
2023/10/04 05:28:20;;;;;;;14.98;3.78;;;11.00;85.00;;;;;;5009797;28;20045;-66
2023/10/04 05:30:47;;;;;;;15.85;3.72;;;11.00;85.10;;;;;;5009760;28;20041;-66
2023/10/04 05:33:17;;;;;;;17.88;4.13;;;11.00;85.00;;;;;;4998003;28;20069;-66
2023/10/04 05:35:44;;;;;;;14.48;3.85;;;11.00;84.90;;;;;;5024229;28;20053;-66
2023/10/04 05:38:12;;;;;;;15.15;4.32;;;11.10;84.90;;;;;;5029287;28;20133;-66
2023/10/04 05:40:43;;;;;;;15.18;3.78;;;11.10;84.90;;;;;;5023437;28;20124;-67
2023/10/04 05:43:09;;;;;;;21.85;4.05;;;11.10;84.90;;;;;;5009519;28;20121;-66
2023/10/04 05:45:42;;;;;;;17.45;4.57;;;11.10;84.80;;;;;;5009748;28;20116;-66
2023/10/04 05:48:09;;;;;;;21.65;4.13;;;11.10;84.90;;;;;;5009094;28;20401;-66
2023/10/04 05:50:35;;;;;;;21.10;4.40;;;11.10;84.80;;;;;;5011156;28;20049;-66
2023/10/04 05:53:05;;;;;;;19.63;4.32;;;11.10;84.80;;;;;;5007726;28;20053;-65
2023/10/04 05:55:32;;;;;;;21.33;4.38;;;11.10;84.80;;;;;;5026261;28;20046;-66
2023/10/04 05:57:58;;;;;;;21.60;4.85;;;11.10;84.90;;;;;;5009137;28;20042;-64
2023/10/04 06:00:42;;;;;;;20.75;4.95;;;11.10;84.80;;;;;;5008910;28;20092;-66
2023/10/04 06:03:10;;;;;;;22.48;4.55;;;11.10;85.00;;;;;;5024492;28;20076;-66
2023/10/04 06:05:38;;;;;;;18.70;4.80;;;11.10;85.00;;;;;;5029051;28;20119;-65
2023/10/04 06:08:12;;;;;;;14.77;4.15;;;11.10;85.00;;;;;;5029179;28;20045;-65
2023/10/04 06:10:38;;;;;;;21.70;4.53;;;11.10;85.00;;;;;;5028527;28;20045;-66
2023/10/04 06:13:14;;;;;;;20.42;4.30;;;11.10;85.00;;;;;;5012397;28;20057;-66
2023/10/04 06:15:44;;;;;;;23.88;8.45;;;11.10;85.00;;;;;;5009220;28;20052;-66
2023/10/04 06:18:13;;;;;;;19.05;5.13;;;11.10;85.00;;;;;;5007528;28;20048;-66
2023/10/04 06:20:40;;;;;;;21.75;7.57;;;11.00;85.00;;;;;;5023597;28;20087;-66
2023/10/04 06:23:14;;;;;;;21.13;6.55;;;11.00;85.00;;;;;;5014832;28;20453;-66
2023/10/04 06:25:41;;;;;;;23.10;5.50;;;11.10;85.00;;;;;;5013465;28;20497;-66
2023/10/04 06:28:11;;;;;;;21.30;5.20;;;11.10;84.90;;;;;;5012886;28;20088;-66
2023/10/04 06:30:38;;;;;;;13.45;4.63;;;11.10;85.00;;;;;;5012867;28;20057;-66
2023/10/04 06:33:06;;;;;;;17.02;4.80;;;11.10;85.00;;;;;;4999899;28;20391;-66
2023/10/04 06:35:32;;;;;;;14.65;4.70;;;11.10;85.00;;;;;;5026273;28;20050;-66
2023/10/04 06:38:03;;;;;;;25.10;4.97;;;11.10;84.90;;;;;;5033260;28;20077;-64
2023/10/04 06:40:31;;;;;;;15.43;4.95;;;11.10;85.00;;;;;;5013941;28;20038;-64
2023/10/04 06:43:00;;;;;;;21.25;4.80;;;11.10;85.00;;;;;;5021089;28;20139;-63
2023/10/04 06:45:27;;;;;;;20.35;5.30;;;11.10;85.00;;;;;;5032182;28;20068;-66
2023/10/04 06:47:54;;;;;;;20.33;5.25;;;11.10;84.90;;;;;;5017126;28;20034;-66
2023/10/04 06:50:32;;;;;;;22.15;5.30;;;11.10;85.00;;;;;;5013397;28;20037;-67
2023/10/04 06:52:58;;;;;;;16.45;4.70;;;11.20;85.00;;;;;;5010172;28;20121;-64
2023/10/04 06:55:25;;;;;;;19.08;5.05;;;11.20;85.00;;;;;;5008583;28;20088;-66
2023/10/04 06:57:51;;;;;;;15.23;5.00;;;11.30;85.00;;;;;;5011329;28;20164;-67
2023/10/04 07:00:19;;;;;;;19.70;5.03;;;11.30;85.00;;;;;;5012449;28;20126;-67
2023/10/04 07:02:47;;;;;;;22.73;5.22;;;11.40;85.00;;;;;;5027142;28;20046;-66
2023/10/04 07:05:20;;;;;;;20.25;5.65;;;11.50;84.90;;;;;;5012154;28;20104;-66
2023/10/04 07:07:47;;;;;;;22.35;4.88;;;11.50;84.80;;;;;;5011944;28;20038;-67
2023/10/04 07:10:15;;;;;;;20.27;6.00;;;11.60;84.70;;;;;;5009816;28;20476;-66
2023/10/04 07:12:43;;;;;;;20.02;5.07;;;11.70;84.70;;;;;;5011396;28;20062;-66
2023/10/04 07:15:11;;;;;;;16.20;5.07;;;11.70;84.60;;;;;;5011028;28;20108;-66
2023/10/04 07:17:39;;;;;;;21.02;5.25;;;11.80;84.70;;;;;;5011465;28;20053;-66
2023/10/04 07:20:15;;;;;;;20.23;5.97;;;11.90;84.60;;;;;;5011977;28;20042;-66
2023/10/04 07:22:47;;;;;;;20.23;5.13;;;11.90;84.50;;;;;;5011739;28;20079;-66
2023/10/04 07:25:14;;;;;;;27.38;5.43;;;12.00;84.30;;;;;;4990369;28;21331;-62
2023/10/04 07:27:42;;;;;;;21.25;5.40;;;12.10;84.30;;;;;;4996543;28;20046;-66
2023/10/04 07:30:12;;;;;;;19.55;5.22;;;12.20;84.30;;;;;;5005667;28;20080;-66
2023/10/04 07:32:42;;;;;;;17.55;5.40;;;12.20;84.40;;;;;;5006187;28;20069;-66
2023/10/04 07:35:12;;;;;;;23.38;5.53;;;12.30;84.40;;;;;;5007901;28;20068;-67
2023/10/04 07:37:40;;;;;;;21.50;5.30;;;12.40;84.40;;;;;;5008309;28;20057;-67
2023/10/04 07:40:09;;;;;;;20.27;5.50;;;12.50;84.40;;;;;;5005317;28;20099;-66
2023/10/04 07:42:36;;;;;;;19.70;4.97;;;12.50;84.30;;;;;;4997485;28;20054;-67
2023/10/04 07:45:03;;;;;;;23.25;5.53;;;12.60;84.30;;;;;;4997723;28;20245;-67
2023/10/04 07:47:29;;;;;;;21.85;5.93;;;12.70;84.00;;;;;;4997990;28;20401;-64
2023/10/04 07:49:55;;;;;;;21.85;5.22;;;12.80;84.10;;;;;;4997394;28;20042;-66
2023/10/04 07:52:20;;;;;;;17.83;5.15;;;12.80;84.00;;;;;;4997224;28;20073;-67
2023/10/04 07:54:46;;;;;;;15.15;4.85;;;12.90;83.90;;;;;;4997595;28;20129;-66
2023/10/04 07:57:12;;;;;;;21.48;5.35;;;13.00;83.30;;;;;;4996655;28;20054;-64
2023/10/04 07:59:38;;;;;;;16.42;4.63;;;13.10;83.10;;;;;;4995108;28;20054;-66
2023/10/04 08:02:03;;;;;;;19.80;5.30;;;13.20;83.00;;;;;;4998509;28;20369;-66
2023/10/04 08:04:29;;;;;;;20.42;4.70;;;13.30;82.60;;;;;;4996896;28;20054;-66
2023/10/04 08:06:55;;;;;;;22.10;5.10;;;13.30;82.80;;;;;;4996594;28;20050;-66
2023/10/04 08:09:21;;;;;;;21.38;5.65;;;13.40;82.90;;;;;;4996729;28;20189;-65
2023/10/04 08:11:50;;;;;;;25.25;5.25;;;13.50;82.80;;;;;;4997312;28;20050;-67
2023/10/04 08:14:16;;;;;;;19.40;5.38;;;13.50;82.90;;;;;;4997549;28;20505;-67
2023/10/04 08:16:41;;;;;;;19.73;5.25;;;13.60;83.00;;;;;;4997509;28;20135;-64
2023/10/04 08:19:07;;;;;;;20.05;5.57;;;13.60;82.10;;;;;;4994634;28;20511;-66
2023/10/04 08:21:33;;;;;;;15.65;4.93;;;13.70;81.90;;;;;;4996726;28;20056;-63
2023/10/04 08:24:00;;;;;;;21.10;5.85;;;13.80;81.80;;;;;;4996713;28;20053;-67
2023/10/04 08:26:26;;;;;;;17.30;5.43;;;13.90;81.30;;;;;;4997829;28;20716;-67
2023/10/04 08:28:53;;;;;;;17.35;5.10;;;13.90;81.80;;;;;;4997006;28;20099;-67
2023/10/04 08:31:19;;;;;;;20.23;5.63;;;14.00;81.10;;;;;;4997347;28;20050;-67
2023/10/04 08:33:45;;;;;;;21.92;5.40;;;14.00;80.90;;;;;;4996022;28;20479;-66
2023/10/04 08:36:15;;;;;;;17.33;5.45;;;14.10;80.70;;;;;;4997495;28;20108;-66
2023/10/04 08:38:45;;;;;;;23.83;5.75;;;14.20;80.70;;;;;;4996919;28;20057;-65
2023/10/04 08:41:11;;;;;;;20.58;5.05;;;14.20;80.70;;;;;;4996527;28;20659;-66
2023/10/04 08:43:38;;;;;;;15.80;5.13;;;14.30;79.70;;;;;;4997082;28;20050;-67
2023/10/04 08:46:07;;;;;;;17.73;5.80;;;14.40;79.40;;;;;;4996831;28;21013;-67
2023/10/04 08:48:33;;;;;;;23.17;5.18;;;14.50;80.00;;;;;;4995727;28;20062;-63
2023/10/04 08:51:13;;;;;;;20.63;5.25;;;14.60;78.80;;;;;;4995105;28;20140;-65
2023/10/04 08:54:12;;;;;;;21.92;5.20;;;14.60;79.10;;;;;;4997706;28;20054;-67
2023/10/04 08:56:58;;;;;;;21.70;5.80;;;14.60;78.90;;;;;;4996227;28;20546;-67
2023/10/04 08:59:24;;;;;;;18.00;5.80;;;14.70;79.00;;;;;;4996294;28;20046;-62
2023/10/04 09:01:51;;;;;;;18.55;5.55;;;14.80;78.60;;;;;;4996562;28;20045;-66
2023/10/04 09:04:20;;;;;;;20.85;5.50;;;14.80;78.30;;;;;;4996062;28;20069;-67
2023/10/04 09:06:53;;;;;;;19.38;5.40;;;14.90;79.10;;;;;;4996200;28;20061;-65
2023/10/04 09:09:19;;;;;;;19.88;5.55;;;15.00;78.80;;;;;;4997409;28;20057;-67
2023/10/04 09:11:45;;;;;;;16.15;4.97;;;15.00;77.50;;;;;;4996997;28;20136;-67
2023/10/04 09:14:14;;;;;;;17.33;5.72;;;15.00;77.80;;;;;;4997571;28;20062;-67
2023/10/04 09:16:40;;;;;;;16.60;5.15;;;15.10;77.60;;;;;;4997277;28;20077;-67
2023/10/04 09:19:17;;;;;;;14.23;5.43;;;15.10;77.60;;;;;;4996059;28;20101;-68
2023/10/04 09:21:45;;;;;;;19.23;4.97;;;15.20;77.80;;;;;;4996848;28;20100;-67
2023/10/04 09:24:13;;;;;;;17.27;5.00;;;15.30;78.00;;;;;;4997180;28;20058;-65
2023/10/04 09:26:42;;;;;;;14.88;5.82;;;15.30;77.60;;;;;;4993849;28;20515;-67
2023/10/04 09:29:10;;;;;;;17.33;5.82;;;15.30;77.80;;;;;;4993175;28;20076;-68
2023/10/04 09:31:53;;;;;;;12.80;4.30;;;15.40;77.50;;;;;;4992839;28;20596;-67
2023/10/04 09:34:19;;;;;;;17.45;5.32;;;15.50;76.90;;;;;;5009223;28;20506;-69
2023/10/04 09:36:45;;;;;;;18.05;4.57;;;15.40;75.40;;;;;;4991888;28;20129;-62
2023/10/04 09:39:16;;;;;;;16.67;5.32;;;15.40;75.30;;;;;;4993067;28;20138;-66
2023/10/04 09:41:44;;;;;;;17.85;5.75;;;15.40;75.70;;;;;;4993280;28;20057;-62
2023/10/04 09:44:24;;;;;;;18.58;5.30;;;15.40;75.00;;;;;;4993591;28;20132;-66
2023/10/04 09:46:56;;;;;;;16.15;5.60;;;15.40;74.80;;;;;;4994047;28;20056;-66
2023/10/04 09:49:23;;;;;;;16.17;5.03;;;15.50;75.00;;;;;;4992434;28;20109;-67
2023/10/04 09:51:50;;;;;;;16.50;5.47;;;15.50;75.40;;;;;;4993265;28;20057;-68
2023/10/04 09:54:16;;;;;;;16.98;4.90;;;15.50;75.70;;;;;;4993230;28;20042;-66
2023/10/04 09:56:43;;;;;;;15.68;5.38;;;15.60;75.30;;;;;;4993674;28;20050;-64
2023/10/04 09:59:15;;;;;;;15.65;5.15;;;15.60;75.40;;;;;;4993303;28;20060;-66
2023/10/04 10:01:41;;;;;;;17.95;5.40;;;15.80;75.10;;;;;;4990761;28;20141;-66
2023/10/04 10:04:16;;;;;;;19.60;5.78;;;15.90;75.70;;;;;;4993420;28;20049;-63
2023/10/04 10:06:58;;;;;;;18.40;5.53;;;16.00;74.50;;;;;;4992704;28;20058;-67
2023/10/04 10:09:28;;;;;;;14.35;5.55;;;16.00;74.70;;;;;;4992566;28;20042;-67
2023/10/04 10:11:55;;;;;;;16.42;4.63;;;16.00;73.90;;;;;;4992326;28;20088;-67
2023/10/04 10:14:22;;;;;;;16.73;5.18;;;16.00;73.50;;;;;;4992419;28;20053;-66
2023/10/04 10:16:54;;;;;;;17.65;5.20;;;16.00;73.10;;;;;;4993661;28;20583;-67
2023/10/04 10:19:24;;;;;;;17.35;5.68;;;16.00;73.30;;;;;;4992229;28;20054;-63
2023/10/04 10:22:15;;;;;;;14.95;5.15;;;16.00;73.30;;;;;;4992688;28;20053;-66
2023/10/04 10:25:13;;;;;;;13.52;5.60;;;16.00;72.60;;;;;;4993699;28;20509;-66
2023/10/04 10:27:39;;;;;;;18.73;5.50;;;16.00;72.00;;;;;;4994215;28;20042;-67
2023/10/04 10:30:08;;;;;;;14.70;5.20;;;16.00;72.80;;;;;;4994321;28;20042;-67
2023/10/04 10:32:34;;;;;;;15.05;5.55;;;16.00;72.90;;;;;;4996316;28;20696;-66
2023/10/04 10:35:05;;;;;;;18.50;5.50;;;16.00;73.00;;;;;;4995269;28;20132;-65
2023/10/04 10:37:35;;;;;;;17.58;5.97;;;16.00;72.60;;;;;;4994905;28;20698;-66
2023/10/04 10:40:13;;;;;;;14.18;5.32;;;15.90;71.40;;;;;;4995162;28;20054;-65
2023/10/04 10:43:08;;;;;;;16.90;5.90;;;15.80;72.60;;;;;;4995430;28;20058;-63
2023/10/04 10:45:34;;;;;;;19.63;5.70;;;15.80;72.30;;;;;;4995531;28;20057;-66
2023/10/04 10:48:03;;;;;;;15.63;5.40;;;15.80;71.10;;;;;;4996149;28;20046;-63
2023/10/04 10:50:37;;;;;;;14.80;5.28;;;15.70;72.20;;;;;;4994637;28;20046;-63
2023/10/04 10:53:10;;;;;;;15.65;5.65;;;15.70;72.30;;;;;;4994732;28;20058;-65
2023/10/04 10:55:39;;;;;;;20.83;5.88;;;15.70;73.00;;;;;;4996115;28;20124;-68
2023/10/04 10:58:06;;;;;;;18.40;5.38;;;15.70;72.20;;;;;;4995780;28;20046;-69
2023/10/04 11:00:32;;;;;;;15.70;5.88;;;15.60;71.90;;;;;;4995222;28;20956;-68
2023/10/04 11:03:05;;;;;;;19.98;5.97;;;15.60;72.00;;;;;;4995968;28;20046;-64
2023/10/04 11:05:30;;;;;;;19.83;6.40;;;15.60;71.80;;;;;;4997945;28;20045;-66
2023/10/04 11:07:56;;;;;;;18.63;6.25;;;15.60;72.10;;;;;;4998163;28;20116;-67
2023/10/04 11:10:24;;;;;;;15.00;5.38;;;15.60;72.00;;;;;;4999120;28;20069;-66
2023/10/04 11:12:53;;;;;;;15.30;5.65;;;15.60;71.80;;;;;;4999315;28;20509;-67
2023/10/04 11:15:23;;;;;;;17.58;5.75;;;15.60;72.30;;;;;;4999385;28;20049;-65
2023/10/04 11:17:50;;;;;;;18.40;5.63;;;15.60;72.20;;;;;;4998554;28;20060;-66
2023/10/04 11:20:21;;;;;;;19.30;5.80;;;15.60;72.30;;;;;;4995800;28;20425;-63
2023/10/04 11:22:51;;;;;;;15.13;6.15;;;15.70;72.50;;;;;;4998777;28;20053;-65
2023/10/04 11:25:18;;;;;;;18.50;6.10;;;15.80;72.40;;;;;;4998850;28;20469;-66
2023/10/04 11:27:46;;;;;;;17.95;6.28;;;15.80;72.50;;;;;;4999145;28;20054;-65
2023/10/04 11:30:16;;;;;;;19.02;5.85;;;15.80;70.40;;;;;;4997199;28;20521;-66
2023/10/04 11:32:45;;;;;;;13.82;5.72;;;15.80;71.50;;;;;;4996892;28;20081;-64
2023/10/04 11:35:11;;;;;;;13.55;5.20;;;15.90;70.60;;;;;;4998942;28;20111;-64
2023/10/04 11:37:44;;;;;;;20.05;5.50;;;15.90;68.90;;;;;;4997857;28;20116;-64
2023/10/04 11:40:13;;;;;;;21.08;5.55;;;16.00;70.10;;;;;;4997756;28;20432;-64
2023/10/04 11:42:41;;;;;;;12.88;5.43;;;16.00;70.00;;;;;;4998728;28;20061;-67
2023/10/04 11:45:36;;;;;;;13.43;5.22;;;16.00;71.10;;;;;;4998481;28;20104;-66
2023/10/04 11:48:08;;;;;;;15.85;5.47;;;16.00;71.00;;;;;;4989743;28;20521;-64
2023/10/04 11:50:47;;;;;;;12.45;4.80;;;16.00;71.50;;;;;;4997990;28;20069;-67
2023/10/04 11:53:15;;;;;;;16.80;5.82;;;16.00;70.60;;;;;;4997904;28;21334;-64
2023/10/04 11:55:40;;;;;;;15.38;5.25;;;16.00;71.50;;;;;;4997785;28;20067;-65
2023/10/04 11:58:07;;;;;;;19.20;5.97;;;16.00;72.20;;;;;;4997690;28;20544;-65
2023/10/04 12:00:33;;;;;;;15.77;5.50;;;16.00;72.30;;;;;;4996584;28;20614;-63
2023/10/04 12:02:59;;;;;;;16.55;5.85;;;16.00;72.30;;;;;;4998049;28;20057;-65
2023/10/04 12:05:26;;;;;;;15.70;5.68;;;16.00;72.30;;;;;;4997928;28;20057;-63
2023/10/04 12:07:54;;;;;;;15.07;5.00;;;16.10;71.90;;;;;;4998326;28;20136;-65
2023/10/04 12:10:21;;;;;;;12.80;5.10;;;16.10;72.20;;;;;;4996998;28;20046;-66
2023/10/04 12:12:47;;;;;;;16.42;5.40;;;16.10;71.30;;;;;;4997457;28;20116;-63
2023/10/04 12:15:14;;;;;;;13.02;4.78;;;16.10;71.00;;;;;;4997981;28;20062;-66
2023/10/04 12:17:40;;;;;;;14.10;4.72;;;16.10;71.30;;;;;;4997343;28;20488;-66
2023/10/04 12:20:11;;;;;;;17.67;5.30;;;16.10;71.00;;;;;;4978877;28;20053;-67
2023/10/04 12:22:37;;;;;;;12.38;4.63;;;16.10;71.30;;;;;;4997199;28;20059;-67
2023/10/04 12:25:04;;;;;;;14.25;4.55;;;16.10;71.90;;;;;;4996650;28;20041;-66
2023/10/04 12:27:30;;;;;;;13.10;4.40;;;16.10;71.10;;;;;;4997611;28;20069;-68
2023/10/04 12:29:57;;;;;;;11.75;4.00;;;16.10;71.00;;;;;;4997645;28;20519;-64
2023/10/04 12:32:23;;;;;;;15.35;4.22;;;16.10;70.10;;;;;;4997794;28;20046;-65
2023/10/04 12:34:48;;;;;;;11.63;3.95;;;16.10;71.10;;;;;;4997598;28;20052;-66
2023/10/04 12:37:14;;;;;;;10.65;3.60;;;16.10;70.60;;;;;;4997162;28;20055;-64
2023/10/04 12:39:43;;;;;;;13.05;3.75;;;16.20;71.20;;;;;;4995691;28;20057;-66
2023/10/04 12:42:09;;;;;;;11.07;3.75;;;16.20;71.20;;;;;;4996152;28;20485;-68
2023/10/04 12:44:37;;;;;;;11.57;3.95;;;16.20;70.90;;;;;;4997270;28;20101;-66
2023/10/04 12:47:04;;;;;;;15.23;3.75;;;16.30;71.50;;;;;;4997303;28;20111;-66
2023/10/04 12:49:29;;;;;;;16.52;4.13;;;16.40;71.20;;;;;;4997040;28;20473;-65